sensor_id;sensor_type;location;lat;lon;timestamp;temperature;humidity
14236;DHT22;7202;50.718;7.072;2023-11-21T00:00:12;9.20;99.90
14236;DHT22;7202;50.718;7.072;2023-11-21T00:02:41;9.20;99.90
14236;DHT22;7202;50.718;7.072;2023-11-21T00:05:11;9.20;99.90
14236;DHT22;7202;50.718;7.072;2023-11-21T00:07:41;9.20;99.90
14236;DHT22;7202;50.718;7.072;2023-11-21T00:10:12;9.10;99.90
14236;DHT22;7202;50.718;7.072;2023-11-21T00:12:43;9.30;99.90
14236;DHT22;7202;50.718;7.072;2023-11-21T00:15:11;9.20;99.90
14236;DHT22;7202;50.718;7.072;2023-11-21T00:17:40;9.20;99.90
14236;DHT22;7202;50.718;7.072;2023-11-21T00:20:10;9.20;99.90
14236;DHT22;7202;50.718;7.072;2023-11-21T00:22:41;9.20;99.90
14236;DHT22;7202;50.718;7.072;2023-11-21T00:25:12;9.20;99.90
14236;DHT22;7202;50.718;7.072;2023-11-21T00:27:42;9.20;99.90
14236;DHT22;7202;50.718;7.072;2023-11-21T00:30:12;9.20;99.90
14236;DHT22;7202;50.718;7.072;2023-11-21T00:32:41;9.20;99.90
14236;DHT22;7202;50.718;7.072;2023-11-21T00:35:10;9.30;99.90
14236;DHT22;7202;50.718;7.072;2023-11-21T00:37:39;9.30;99.90
14236;DHT22;7202;50.718;7.072;2023-11-21T00:40:09;9.30;99.90
14236;DHT22;7202;50.718;7.072;2023-11-21T00:42:39;9.20;99.90
14236;DHT22;7202;50.718;7.072;2023-11-21T00:45:08;9.30;99.90
14236;DHT22;7202;50.718;7.072;2023-11-21T00:47:37;9.30;99.90
14236;DHT22;7202;50.718;7.072;2023-11-21T00:50:07;9.30;99.90
14236;DHT22;7202;50.718;7.072;2023-11-21T00:52:36;9.30;99.90
14236;DHT22;7202;50.718;7.072;2023-11-21T00:55:06;9.30;99.90
14236;DHT22;7202;50.718;7.072;2023-11-21T00:57:35;9.30;99.90
14236;DHT22;7202;50.718;7.072;2023-11-21T01:00:07;9.30;99.90
14236;DHT22;7202;50.718;7.072;2023-11-21T01:02:38;9.30;99.90
14236;DHT22;7202;50.718;7.072;2023-11-21T01:05:07;9.30;99.90
14236;DHT22;7202;50.718;7.072;2023-11-21T01:07:36;9.30;99.90
14236;DHT22;7202;50.718;7.072;2023-11-21T01:10:05;9.30;99.90
14236;DHT22;7202;50.718;7.072;2023-11-21T01:12:34;9.30;99.90
14236;DHT22;7202;50.718;7.072;2023-11-21T01:15:06;9.30;99.90
14236;DHT22;7202;50.718;7.072;2023-11-21T01:17:35;9.30;99.90
14236;DHT22;7202;50.718;7.072;2023-11-21T01:20:05;9.30;99.90
14236;DHT22;7202;50.718;7.072;2023-11-21T01:22:41;9.30;99.90
14236;DHT22;7202;50.718;7.072;2023-11-21T01:25:10;9.30;99.90
14236;DHT22;7202;50.718;7.072;2023-11-21T01:27:39;9.30;99.90
14236;DHT22;7202;50.718;7.072;2023-11-21T01:30:09;9.30;99.90
14236;DHT22;7202;50.718;7.072;2023-11-21T01:32:39;9.30;99.90
14236;DHT22;7202;50.718;7.072;2023-11-21T01:35:08;9.30;99.90
14236;DHT22;7202;50.718;7.072;2023-11-21T01:37:37;9.30;99.90
14236;DHT22;7202;50.718;7.072;2023-11-21T01:40:08;9.30;99.90
14236;DHT22;7202;50.718;7.072;2023-11-21T01:42:41;9.30;99.90
14236;DHT22;7202;50.718;7.072;2023-11-21T01:45:12;9.30;99.90
14236;DHT22;7202;50.718;7.072;2023-11-21T01:47:44;9.30;99.90
14236;DHT22;7202;50.718;7.072;2023-11-21T01:50:15;9.30;99.90
14236;DHT22;7202;50.718;7.072;2023-11-21T01:52:45;9.30;99.90
14236;DHT22;7202;50.718;7.072;2023-11-21T01:55:16;9.30;99.90
14236;DHT22;7202;50.718;7.072;2023-11-21T01:57:55;9.30;99.90
14236;DHT22;7202;50.718;7.072;2023-11-21T02:00:27;9.30;99.90
14236;DHT22;7202;50.718;7.072;2023-11-21T02:02:58;9.30;99.90
14236;DHT22;7202;50.718;7.072;2023-11-21T02:05:27;9.30;99.90
14236;DHT22;7202;50.718;7.072;2023-11-21T02:07:58;9.30;99.90
14236;DHT22;7202;50.718;7.072;2023-11-21T02:10:28;9.30;99.90
14236;DHT22;7202;50.718;7.072;2023-11-21T02:12:58;9.20;99.90
14236;DHT22;7202;50.718;7.072;2023-11-21T02:15:31;9.30;99.90
14236;DHT22;7202;50.718;7.072;2023-11-21T02:18:00;9.30;99.90
14236;DHT22;7202;50.718;7.072;2023-11-21T02:20:30;9.30;99.90
14236;DHT22;7202;50.718;7.072;2023-11-21T02:23:00;9.30;99.90
14236;DHT22;7202;50.718;7.072;2023-11-21T02:25:30;9.30;99.90
14236;DHT22;7202;50.718;7.072;2023-11-21T02:28:01;9.30;99.90
14236;DHT22;7202;50.718;7.072;2023-11-21T02:30:30;9.30;99.90
14236;DHT22;7202;50.718;7.072;2023-11-21T02:33:00;9.30;99.90
14236;DHT22;7202;50.718;7.072;2023-11-21T02:35:29;9.30;99.90
14236;DHT22;7202;50.718;7.072;2023-11-21T02:38:00;9.30;99.90
14236;DHT22;7202;50.718;7.072;2023-11-21T02:40:30;9.30;99.90
14236;DHT22;7202;50.718;7.072;2023-11-21T02:42:59;9.20;99.90
14236;DHT22;7202;50.718;7.072;2023-11-21T02:45:27;9.20;99.90
14236;DHT22;7202;50.718;7.072;2023-11-21T02:47:56;9.20;99.90
14236;DHT22;7202;50.718;7.072;2023-11-21T02:50:29;9.20;99.90
14236;DHT22;7202;50.718;7.072;2023-11-21T02:53:00;9.20;99.90
14236;DHT22;7202;50.718;7.072;2023-11-21T02:55:28;9.30;99.90
14236;DHT22;7202;50.718;7.072;2023-11-21T02:57:58;9.30;99.90
14236;DHT22;7202;50.718;7.072;2023-11-21T03:00:27;9.30;99.90
14236;DHT22;7202;50.718;7.072;2023-11-21T03:02:56;9.30;99.90
14236;DHT22;7202;50.718;7.072;2023-11-21T03:05:26;9.30;99.90
14236;DHT22;7202;50.718;7.072;2023-11-21T03:07:56;9.30;99.90
14236;DHT22;7202;50.718;7.072;2023-11-21T03:10:27;9.30;99.90
14236;DHT22;7202;50.718;7.072;2023-11-21T03:12:55;9.30;99.90
14236;DHT22;7202;50.718;7.072;2023-11-21T03:15:24;9.30;99.90
14236;DHT22;7202;50.718;7.072;2023-11-21T03:17:53;9.30;99.90
14236;DHT22;7202;50.718;7.072;2023-11-21T03:20:22;9.30;99.90
14236;DHT22;7202;50.718;7.072;2023-11-21T03:22:51;9.30;99.90
14236;DHT22;7202;50.718;7.072;2023-11-21T03:25:20;9.20;99.90
14236;DHT22;7202;50.718;7.072;2023-11-21T03:27:52;9.20;99.90
14236;DHT22;7202;50.718;7.072;2023-11-21T03:30:21;9.20;99.90
14236;DHT22;7202;50.718;7.072;2023-11-21T03:32:49;9.20;99.90
14236;DHT22;7202;50.718;7.072;2023-11-21T03:35:18;9.20;99.90
14236;DHT22;7202;50.718;7.072;2023-11-21T03:37:48;9.20;99.90
14236;DHT22;7202;50.718;7.072;2023-11-21T03:40:17;9.20;99.90
14236;DHT22;7202;50.718;7.072;2023-11-21T03:42:45;9.10;99.90
14236;DHT22;7202;50.718;7.072;2023-11-21T03:45:15;9.10;99.90
14236;DHT22;7202;50.718;7.072;2023-11-21T03:47:44;9.10;99.90
14236;DHT22;7202;50.718;7.072;2023-11-21T03:50:13;9.10;99.90
14236;DHT22;7202;50.718;7.072;2023-11-21T03:52:43;9.10;99.90
14236;DHT22;7202;50.718;7.072;2023-11-21T03:55:11;9.10;99.90
14236;DHT22;7202;50.718;7.072;2023-11-21T03:57:42;9.10;99.90
14236;DHT22;7202;50.718;7.072;2023-11-21T04:00:12;9.00;99.90
14236;DHT22;7202;50.718;7.072;2023-11-21T04:02:42;9.00;99.90
14236;DHT22;7202;50.718;7.072;2023-11-21T04:05:10;9.00;99.90
14236;DHT22;7202;50.718;7.072;2023-11-21T04:07:39;9.00;99.90
14236;DHT22;7202;50.718;7.072;2023-11-21T04:10:08;9.00;99.90
14236;DHT22;7202;50.718;7.072;2023-11-21T04:12:39;9.00;99.90
14236;DHT22;7202;50.718;7.072;2023-11-21T04:15:09;9.00;99.90
14236;DHT22;7202;50.718;7.072;2023-11-21T04:17:38;9.00;99.90
14236;DHT22;7202;50.718;7.072;2023-11-21T04:20:09;9.00;99.90
14236;DHT22;7202;50.718;7.072;2023-11-21T04:22:38;9.00;99.90
14236;DHT22;7202;50.718;7.072;2023-11-21T04:25:09;9.00;99.90
14236;DHT22;7202;50.718;7.072;2023-11-21T04:27:39;9.00;99.90
14236;DHT22;7202;50.718;7.072;2023-11-21T04:30:11;9.00;99.90
14236;DHT22;7202;50.718;7.072;2023-11-21T04:32:41;9.00;99.90
14236;DHT22;7202;50.718;7.072;2023-11-21T04:35:11;9.00;99.90
14236;DHT22;7202;50.718;7.072;2023-11-21T04:37:40;9.00;99.90
14236;DHT22;7202;50.718;7.072;2023-11-21T04:40:09;9.00;99.90
14236;DHT22;7202;50.718;7.072;2023-11-21T04:42:38;9.00;99.90
14236;DHT22;7202;50.718;7.072;2023-11-21T04:45:08;9.30;99.90
14236;DHT22;7202;50.718;7.072;2023-11-21T04:47:39;9.00;99.90
14236;DHT22;7202;50.718;7.072;2023-11-21T04:50:08;9.00;99.90
14236;DHT22;7202;50.718;7.072;2023-11-21T04:52:38;9.00;99.90
14236;DHT22;7202;50.718;7.072;2023-11-21T04:55:07;9.00;99.90
14236;DHT22;7202;50.718;7.072;2023-11-21T04:57:38;9.00;99.90
14236;DHT22;7202;50.718;7.072;2023-11-21T05:00:09;9.00;99.90
14236;DHT22;7202;50.718;7.072;2023-11-21T05:02:39;8.90;99.90
14236;DHT22;7202;50.718;7.072;2023-11-21T05:05:09;8.90;99.90
14236;DHT22;7202;50.718;7.072;2023-11-21T05:07:40;8.90;99.90
14236;DHT22;7202;50.718;7.072;2023-11-21T05:10:10;8.90;99.90
14236;DHT22;7202;50.718;7.072;2023-11-21T05:12:40;8.90;99.90
14236;DHT22;7202;50.718;7.072;2023-11-21T05:15:10;8.90;99.90
14236;DHT22;7202;50.718;7.072;2023-11-21T05:17:40;8.90;99.90
14236;DHT22;7202;50.718;7.072;2023-11-21T05:20:14;8.90;99.90
14236;DHT22;7202;50.718;7.072;2023-11-21T05:22:47;8.90;99.90
14236;DHT22;7202;50.718;7.072;2023-11-21T05:25:16;8.90;99.90
14236;DHT22;7202;50.718;7.072;2023-11-21T05:27:46;8.90;99.90
14236;DHT22;7202;50.718;7.072;2023-11-21T05:30:15;8.90;99.90
14236;DHT22;7202;50.718;7.072;2023-11-21T05:32:44;8.90;99.90
14236;DHT22;7202;50.718;7.072;2023-11-21T05:35:14;8.90;99.90
14236;DHT22;7202;50.718;7.072;2023-11-21T05:37:45;8.90;99.90
14236;DHT22;7202;50.718;7.072;2023-11-21T05:40:15;8.90;99.90
14236;DHT22;7202;50.718;7.072;2023-11-21T05:42:44;8.90;99.90
14236;DHT22;7202;50.718;7.072;2023-11-21T05:45:13;8.80;99.90
14236;DHT22;7202;50.718;7.072;2023-11-21T05:47:43;8.90;99.90
14236;DHT22;7202;50.718;7.072;2023-11-21T05:50:14;8.80;99.90
14236;DHT22;7202;50.718;7.072;2023-11-21T05:52:43;8.80;99.90
14236;DHT22;7202;50.718;7.072;2023-11-21T05:55:12;8.80;99.90
14236;DHT22;7202;50.718;7.072;2023-11-21T05:57:43;8.80;99.90
14236;DHT22;7202;50.718;7.072;2023-11-21T06:00:14;8.80;99.90
14236;DHT22;7202;50.718;7.072;2023-11-21T06:02:47;8.80;99.90
14236;DHT22;7202;50.718;7.072;2023-11-21T06:05:18;8.80;99.90
14236;DHT22;7202;50.718;7.072;2023-11-21T06:07:47;8.80;99.90
14236;DHT22;7202;50.718;7.072;2023-11-21T06:10:16;8.80;99.90
14236;DHT22;7202;50.718;7.072;2023-11-21T06:12:48;8.80;99.90
14236;DHT22;7202;50.718;7.072;2023-11-21T06:15:16;8.80;99.90
14236;DHT22;7202;50.718;7.072;2023-11-21T06:17:46;8.80;99.90
14236;DHT22;7202;50.718;7.072;2023-11-21T06:20:20;8.80;99.90
14236;DHT22;7202;50.718;7.072;2023-11-21T06:22:50;8.80;99.90
14236;DHT22;7202;50.718;7.072;2023-11-21T06:25:19;8.80;99.90
14236;DHT22;7202;50.718;7.072;2023-11-21T06:27:50;8.80;99.90
14236;DHT22;7202;50.718;7.072;2023-11-21T06:30:21;9.00;99.90
14236;DHT22;7202;50.718;7.072;2023-11-21T06:32:50;8.80;99.90
14236;DHT22;7202;50.718;7.072;2023-11-21T06:35:19;8.80;99.90
14236;DHT22;7202;50.718;7.072;2023-11-21T06:37:48;8.80;99.90
14236;DHT22;7202;50.718;7.072;2023-11-21T06:40:18;8.90;99.90
14236;DHT22;7202;50.718;7.072;2023-11-21T06:42:49;8.90;99.90
14236;DHT22;7202;50.718;7.072;2023-11-21T06:45:18;8.90;99.90
14236;DHT22;7202;50.718;7.072;2023-11-21T06:47:47;8.80;99.90
14236;DHT22;7202;50.718;7.072;2023-11-21T06:50:17;8.90;99.90
14236;DHT22;7202;50.718;7.072;2023-11-21T06:52:46;8.80;99.90
14236;DHT22;7202;50.718;7.072;2023-11-21T06:55:16;9.00;99.90
14236;DHT22;7202;50.718;7.072;2023-11-21T06:57:44;8.80;99.90
14236;DHT22;7202;50.718;7.072;2023-11-21T07:00:17;8.80;99.90
14236;DHT22;7202;50.718;7.072;2023-11-21T07:02:46;8.80;99.90
14236;DHT22;7202;50.718;7.072;2023-11-21T07:05:15;8.80;99.90
14236;DHT22;7202;50.718;7.072;2023-11-21T07:07:48;8.80;99.90
14236;DHT22;7202;50.718;7.072;2023-11-21T07:10:17;8.80;99.90
14236;DHT22;7202;50.718;7.072;2023-11-21T07:12:45;8.80;99.90
14236;DHT22;7202;50.718;7.072;2023-11-21T07:15:14;8.80;99.90
14236;DHT22;7202;50.718;7.072;2023-11-21T07:17:44;8.80;99.90
14236;DHT22;7202;50.718;7.072;2023-11-21T07:20:14;8.80;99.90
14236;DHT22;7202;50.718;7.072;2023-11-21T07:22:44;8.80;99.90
14236;DHT22;7202;50.718;7.072;2023-11-21T07:25:13;8.80;99.90
14236;DHT22;7202;50.718;7.072;2023-11-21T07:27:41;8.80;99.90
14236;DHT22;7202;50.718;7.072;2023-11-21T07:30:11;8.80;99.90
14236;DHT22;7202;50.718;7.072;2023-11-21T07:32:40;8.80;99.90
14236;DHT22;7202;50.718;7.072;2023-11-21T07:35:10;8.90;99.90
14236;DHT22;7202;50.718;7.072;2023-11-21T07:37:39;8.80;99.90
14236;DHT22;7202;50.718;7.072;2023-11-21T07:40:07;8.90;99.90
14236;DHT22;7202;50.718;7.072;2023-11-21T07:42:37;8.80;99.90
14236;DHT22;7202;50.718;7.072;2023-11-21T07:45:06;8.90;99.90
14236;DHT22;7202;50.718;7.072;2023-11-21T07:47:36;8.90;99.90
14236;DHT22;7202;50.718;7.072;2023-11-21T07:50:07;8.90;99.90
14236;DHT22;7202;50.718;7.072;2023-11-21T07:52:37;8.90;99.90
14236;DHT22;7202;50.718;7.072;2023-11-21T07:55:07;8.90;99.90
14236;DHT22;7202;50.718;7.072;2023-11-21T07:57:36;8.90;99.90
14236;DHT22;7202;50.718;7.072;2023-11-21T08:00:06;8.90;99.90
14236;DHT22;7202;50.718;7.072;2023-11-21T08:02:40;8.90;99.90
14236;DHT22;7202;50.718;7.072;2023-11-21T08:05:10;8.90;99.90
14236;DHT22;7202;50.718;7.072;2023-11-21T08:07:52;9.20;99.90
14236;DHT22;7202;50.718;7.072;2023-11-21T08:10:21;8.90;99.90
14236;DHT22;7202;50.718;7.072;2023-11-21T08:12:49;9.00;99.90
14236;DHT22;7202;50.718;7.072;2023-11-21T08:15:18;9.00;99.90
14236;DHT22;7202;50.718;7.072;2023-11-21T08:17:47;9.00;99.90
14236;DHT22;7202;50.718;7.072;2023-11-21T08:20:16;9.00;99.90
14236;DHT22;7202;50.718;7.072;2023-11-21T08:22:45;9.00;99.90
14236;DHT22;7202;50.718;7.072;2023-11-21T08:25:16;9.00;99.90
14236;DHT22;7202;50.718;7.072;2023-11-21T08:27:47;9.10;99.90
14236;DHT22;7202;50.718;7.072;2023-11-21T08:30:16;9.10;99.90
14236;DHT22;7202;50.718;7.072;2023-11-21T08:32:46;9.10;99.90
14236;DHT22;7202;50.718;7.072;2023-11-21T08:35:15;9.20;99.90
14236;DHT22;7202;50.718;7.072;2023-11-21T08:37:44;9.20;99.90
14236;DHT22;7202;50.718;7.072;2023-11-21T08:40:13;9.30;99.90
14236;DHT22;7202;50.718;7.072;2023-11-21T08:42:45;9.30;99.90
14236;DHT22;7202;50.718;7.072;2023-11-21T08:45:14;9.30;99.90
14236;DHT22;7202;50.718;7.072;2023-11-21T08:47:45;9.30;99.90
14236;DHT22;7202;50.718;7.072;2023-11-21T08:50:14;9.30;99.90
14236;DHT22;7202;50.718;7.072;2023-11-21T08:52:44;9.40;99.90
14236;DHT22;7202;50.718;7.072;2023-11-21T08:55:14;9.40;99.90
14236;DHT22;7202;50.718;7.072;2023-11-21T08:57:45;9.40;99.90
14236;DHT22;7202;50.718;7.072;2023-11-21T09:00:14;9.30;99.90
14236;DHT22;7202;50.718;7.072;2023-11-21T09:02:44;9.50;99.90
14236;DHT22;7202;50.718;7.072;2023-11-21T09:05:14;9.50;99.90
14236;DHT22;7202;50.718;7.072;2023-11-21T09:07:43;9.50;99.90
14236;DHT22;7202;50.718;7.072;2023-11-21T09:10:13;9.50;99.90
14236;DHT22;7202;50.718;7.072;2023-11-21T09:12:42;9.50;99.90
14236;DHT22;7202;50.718;7.072;2023-11-21T09:15:12;9.50;99.90
14236;DHT22;7202;50.718;7.072;2023-11-21T09:17:42;9.50;99.90
14236;DHT22;7202;50.718;7.072;2023-11-21T09:20:12;9.50;99.90
14236;DHT22;7202;50.718;7.072;2023-11-21T09:22:42;9.50;99.90
14236;DHT22;7202;50.718;7.072;2023-11-21T09:25:12;9.50;99.90
14236;DHT22;7202;50.718;7.072;2023-11-21T09:27:41;9.50;99.90
14236;DHT22;7202;50.718;7.072;2023-11-21T09:30:10;9.50;99.90
14236;DHT22;7202;50.718;7.072;2023-11-21T09:32:42;9.50;99.90
14236;DHT22;7202;50.718;7.072;2023-11-21T09:35:12;9.50;99.90
14236;DHT22;7202;50.718;7.072;2023-11-21T09:37:43;9.50;99.90
14236;DHT22;7202;50.718;7.072;2023-11-21T09:40:21;9.50;99.90
14236;DHT22;7202;50.718;7.072;2023-11-21T09:42:55;9.60;99.90
14236;DHT22;7202;50.718;7.072;2023-11-21T09:45:26;9.60;99.90
14236;DHT22;7202;50.718;7.072;2023-11-21T09:47:57;9.60;99.90
14236;DHT22;7202;50.718;7.072;2023-11-21T09:50:26;9.90;99.90
14236;DHT22;7202;50.718;7.072;2023-11-21T09:52:58;9.70;99.90
14236;DHT22;7202;50.718;7.072;2023-11-21T09:55:34;9.70;99.90
14236;DHT22;7202;50.718;7.072;2023-11-21T09:58:04;9.70;99.90
14236;DHT22;7202;50.718;7.072;2023-11-21T10:00:38;9.80;99.90
14236;DHT22;7202;50.718;7.072;2023-11-21T10:03:09;9.80;99.90
14236;DHT22;7202;50.718;7.072;2023-11-21T10:05:38;9.80;99.90
14236;DHT22;7202;50.718;7.072;2023-11-21T10:08:09;9.80;99.90
14236;DHT22;7202;50.718;7.072;2023-11-21T10:10:38;9.80;99.90
14236;DHT22;7202;50.718;7.072;2023-11-21T10:13:12;9.90;99.90
14236;DHT22;7202;50.718;7.072;2023-11-21T10:15:49;9.90;99.90
14236;DHT22;7202;50.718;7.072;2023-11-21T10:18:20;10.00;99.90
14236;DHT22;7202;50.718;7.072;2023-11-21T10:20:50;10.10;99.90
14236;DHT22;7202;50.718;7.072;2023-11-21T10:23:22;10.10;99.90
14236;DHT22;7202;50.718;7.072;2023-11-21T10:25:52;10.10;99.90
14236;DHT22;7202;50.718;7.072;2023-11-21T10:28:24;10.10;99.90
14236;DHT22;7202;50.718;7.072;2023-11-21T10:30:53;10.10;99.90
14236;DHT22;7202;50.718;7.072;2023-11-21T10:33:28;10.30;99.90
14236;DHT22;7202;50.718;7.072;2023-11-21T10:35:57;10.20;99.90
14236;DHT22;7202;50.718;7.072;2023-11-21T10:38:28;10.20;99.90
14236;DHT22;7202;50.718;7.072;2023-11-21T10:41:05;10.20;99.90
14236;DHT22;7202;50.718;7.072;2023-11-21T10:43:38;10.20;99.90
14236;DHT22;7202;50.718;7.072;2023-11-21T10:46:07;10.20;99.90
14236;DHT22;7202;50.718;7.072;2023-11-21T10:48:37;10.20;99.90
14236;DHT22;7202;50.718;7.072;2023-11-21T10:51:07;10.20;99.90
14236;DHT22;7202;50.718;7.072;2023-11-21T10:53:40;10.20;99.90
14236;DHT22;7202;50.718;7.072;2023-11-21T10:56:14;10.20;99.90
14236;DHT22;7202;50.718;7.072;2023-11-21T10:58:45;10.60;99.90
14236;DHT22;7202;50.718;7.072;2023-11-21T11:01:15;10.20;99.90
14236;DHT22;7202;50.718;7.072;2023-11-21T11:03:47;10.20;99.90
14236;DHT22;7202;50.718;7.072;2023-11-21T11:06:17;10.20;99.90
14236;DHT22;7202;50.718;7.072;2023-11-21T11:08:47;10.30;99.90
14236;DHT22;7202;50.718;7.072;2023-11-21T11:11:16;10.30;99.90
14236;DHT22;7202;50.718;7.072;2023-11-21T11:13:45;10.30;99.90
14236;DHT22;7202;50.718;7.072;2023-11-21T11:16:15;10.30;99.90
14236;DHT22;7202;50.718;7.072;2023-11-21T11:18:47;10.30;99.90
14236;DHT22;7202;50.718;7.072;2023-11-21T11:21:27;10.30;99.90
14236;DHT22;7202;50.718;7.072;2023-11-21T11:24:13;10.30;99.90
14236;DHT22;7202;50.718;7.072;2023-11-21T11:26:50;10.20;99.90
14236;DHT22;7202;50.718;7.072;2023-11-21T11:29:27;10.30;99.90
14236;DHT22;7202;50.718;7.072;2023-11-21T11:32:09;10.30;99.90
14236;DHT22;7202;50.718;7.072;2023-11-21T11:34:47;10.30;99.90
14236;DHT22;7202;50.718;7.072;2023-11-21T11:37:17;10.30;99.90
14236;DHT22;7202;50.718;7.072;2023-11-21T11:39:46;10.40;99.90
14236;DHT22;7202;50.718;7.072;2023-11-21T11:42:17;10.40;99.90
14236;DHT22;7202;50.718;7.072;2023-11-21T11:44:49;10.40;99.90
14236;DHT22;7202;50.718;7.072;2023-11-21T11:47:26;10.40;99.90
14236;DHT22;7202;50.718;7.072;2023-11-21T11:50:03;10.40;99.90
14236;DHT22;7202;50.718;7.072;2023-11-21T11:52:39;10.40;99.90
14236;DHT22;7202;50.718;7.072;2023-11-21T11:55:10;10.40;99.90
14236;DHT22;7202;50.718;7.072;2023-11-21T11:57:40;10.50;99.90
14236;DHT22;7202;50.718;7.072;2023-11-21T12:00:10;10.40;99.90
14236;DHT22;7202;50.718;7.072;2023-11-21T12:02:45;10.40;99.90
14236;DHT22;7202;50.718;7.072;2023-11-21T12:05:17;10.40;99.90
14236;DHT22;7202;50.718;7.072;2023-11-21T12:07:48;10.30;99.90
14236;DHT22;7202;50.718;7.072;2023-11-21T12:10:18;10.30;99.90
14236;DHT22;7202;50.718;7.072;2023-11-21T12:12:48;10.40;99.90
14236;DHT22;7202;50.718;7.072;2023-11-21T12:15:17;10.30;99.90
14236;DHT22;7202;50.718;7.072;2023-11-21T12:17:46;10.30;99.90
14236;DHT22;7202;50.718;7.072;2023-11-21T12:20:19;10.30;99.90
14236;DHT22;7202;50.718;7.072;2023-11-21T12:22:50;10.30;99.90
14236;DHT22;7202;50.718;7.072;2023-11-21T12:25:20;10.40;99.90
14236;DHT22;7202;50.718;7.072;2023-11-21T12:27:50;10.40;99.90
14236;DHT22;7202;50.718;7.072;2023-11-21T12:30:21;10.40;99.90
14236;DHT22;7202;50.718;7.072;2023-11-21T12:32:51;10.50;99.90
14236;DHT22;7202;50.718;7.072;2023-11-21T12:35:24;10.50;99.90
14236;DHT22;7202;50.718;7.072;2023-11-21T12:37:55;10.50;99.90
14236;DHT22;7202;50.718;7.072;2023-11-21T12:40:24;10.50;99.90
14236;DHT22;7202;50.718;7.072;2023-11-21T12:42:55;10.60;99.90
14236;DHT22;7202;50.718;7.072;2023-11-21T12:45:25;10.50;99.90
14236;DHT22;7202;50.718;7.072;2023-11-21T12:47:55;10.50;99.90
14236;DHT22;7202;50.718;7.072;2023-11-21T12:50:29;10.50;99.90
14236;DHT22;7202;50.718;7.072;2023-11-21T12:53:01;10.50;99.90
14236;DHT22;7202;50.718;7.072;2023-11-21T12:55:31;10.60;99.90
14236;DHT22;7202;50.718;7.072;2023-11-21T12:58:02;10.60;99.90
14236;DHT22;7202;50.718;7.072;2023-11-21T13:00:37;10.60;99.90
14236;DHT22;7202;50.718;7.072;2023-11-21T13:03:07;10.60;99.90
14236;DHT22;7202;50.718;7.072;2023-11-21T13:05:39;10.60;99.90
14236;DHT22;7202;50.718;7.072;2023-11-21T13:08:10;10.70;99.90
14236;DHT22;7202;50.718;7.072;2023-11-21T13:10:42;10.60;99.90
14236;DHT22;7202;50.718;7.072;2023-11-21T13:13:14;10.60;99.90
14236;DHT22;7202;50.718;7.072;2023-11-21T13:15:50;10.60;99.90
14236;DHT22;7202;50.718;7.072;2023-11-21T13:18:20;10.70;99.90
14236;DHT22;7202;50.718;7.072;2023-11-21T13:20:52;10.70;99.90
14236;DHT22;7202;50.718;7.072;2023-11-21T13:23:23;10.70;99.90
14236;DHT22;7202;50.718;7.072;2023-11-21T13:25:52;10.70;99.90
14236;DHT22;7202;50.718;7.072;2023-11-21T13:28:31;10.60;99.90
14236;DHT22;7202;50.718;7.072;2023-11-21T13:31:05;10.70;99.90
14236;DHT22;7202;50.718;7.072;2023-11-21T13:33:48;10.70;99.90
14236;DHT22;7202;50.718;7.072;2023-11-21T13:36:24;10.70;99.90
14236;DHT22;7202;50.718;7.072;2023-11-21T13:38:54;10.60;99.90
14236;DHT22;7202;50.718;7.072;2023-11-21T13:41:23;10.70;99.90
14236;DHT22;7202;50.718;7.072;2023-11-21T13:43:58;10.70;99.90
14236;DHT22;7202;50.718;7.072;2023-11-21T13:46:36;10.60;99.90
14236;DHT22;7202;50.718;7.072;2023-11-21T13:49:05;10.60;99.90
14236;DHT22;7202;50.718;7.072;2023-11-21T13:51:39;10.60;99.90
14236;DHT22;7202;50.718;7.072;2023-11-21T13:54:10;10.60;99.90
14236;DHT22;7202;50.718;7.072;2023-11-21T13:56:40;10.70;99.90
14236;DHT22;7202;50.718;7.072;2023-11-21T13:59:15;10.60;99.90
14236;DHT22;7202;50.718;7.072;2023-11-21T14:01:49;10.60;99.90
14236;DHT22;7202;50.718;7.072;2023-11-21T14:04:28;10.60;99.90
14236;DHT22;7202;50.718;7.072;2023-11-21T14:07:16;10.60;99.90
14236;DHT22;7202;50.718;7.072;2023-11-21T14:09:54;10.50;99.90
14236;DHT22;7202;50.718;7.072;2023-11-21T14:12:30;10.50;99.90
14236;DHT22;7202;50.718;7.072;2023-11-21T14:15:06;10.50;99.90
14236;DHT22;7202;50.718;7.072;2023-11-21T14:17:37;10.50;99.90
14236;DHT22;7202;50.718;7.072;2023-11-21T14:20:09;10.50;99.90
14236;DHT22;7202;50.718;7.072;2023-11-21T14:22:44;10.50;99.90
14236;DHT22;7202;50.718;7.072;2023-11-21T14:25:14;10.50;99.90
14236;DHT22;7202;50.718;7.072;2023-11-21T14:27:43;10.50;99.90
14236;DHT22;7202;50.718;7.072;2023-11-21T14:30:12;10.50;99.90
14236;DHT22;7202;50.718;7.072;2023-11-21T14:32:45;10.50;99.90
14236;DHT22;7202;50.718;7.072;2023-11-21T14:35:15;10.50;99.90
14236;DHT22;7202;50.718;7.072;2023-11-21T14:37:45;10.50;99.90
14236;DHT22;7202;50.718;7.072;2023-11-21T14:40:14;10.50;99.90
14236;DHT22;7202;50.718;7.072;2023-11-21T14:42:45;10.50;99.90
14236;DHT22;7202;50.718;7.072;2023-11-21T14:45:14;10.40;99.90
14236;DHT22;7202;50.718;7.072;2023-11-21T14:47:47;10.40;99.90
14236;DHT22;7202;50.718;7.072;2023-11-21T14:50:23;10.40;99.90
14236;DHT22;7202;50.718;7.072;2023-11-21T14:53:10;10.40;99.90
14236;DHT22;7202;50.718;7.072;2023-11-21T14:55:40;10.40;99.90
14236;DHT22;7202;50.718;7.072;2023-11-21T14:58:24;10.40;99.90
14236;DHT22;7202;50.718;7.072;2023-11-21T15:00:55;10.30;99.90
14236;DHT22;7202;50.718;7.072;2023-11-21T15:03:27;10.30;99.90
14236;DHT22;7202;50.718;7.072;2023-11-21T15:06:17;10.30;99.90
14236;DHT22;7202;50.718;7.072;2023-11-21T15:08:56;10.30;99.90
14236;DHT22;7202;50.718;7.072;2023-11-21T15:11:47;10.30;99.90
14236;DHT22;7202;50.718;7.072;2023-11-21T15:14:15;10.30;99.90
14236;DHT22;7202;50.718;7.072;2023-11-21T15:16:49;10.20;99.90
14236;DHT22;7202;50.718;7.072;2023-11-21T15:19:20;10.30;99.90
14236;DHT22;7202;50.718;7.072;2023-11-21T15:21:53;10.20;99.90
14236;DHT22;7202;50.718;7.072;2023-11-21T15:24:23;10.20;99.90
14236;DHT22;7202;50.718;7.072;2023-11-21T15:26:54;10.20;99.90
14236;DHT22;7202;50.718;7.072;2023-11-21T15:29:22;10.20;99.90
14236;DHT22;7202;50.718;7.072;2023-11-21T15:31:51;10.20;99.90
14236;DHT22;7202;50.718;7.072;2023-11-21T15:34:29;10.20;99.90
14236;DHT22;7202;50.718;7.072;2023-11-21T15:37:03;10.20;99.90
14236;DHT22;7202;50.718;7.072;2023-11-21T15:39:34;10.20;99.90
14236;DHT22;7202;50.718;7.072;2023-11-21T15:42:03;10.20;99.90
14236;DHT22;7202;50.718;7.072;2023-11-21T15:44:34;10.20;99.90
14236;DHT22;7202;50.718;7.072;2023-11-21T15:47:03;10.20;99.90
14236;DHT22;7202;50.718;7.072;2023-11-21T15:49:33;10.10;99.90
14236;DHT22;7202;50.718;7.072;2023-11-21T15:52:04;10.10;99.90
14236;DHT22;7202;50.718;7.072;2023-11-21T15:54:37;10.10;99.90
14236;DHT22;7202;50.718;7.072;2023-11-21T15:57:08;10.10;99.90
14236;DHT22;7202;50.718;7.072;2023-11-21T15:59:39;10.10;99.90
14236;DHT22;7202;50.718;7.072;2023-11-21T16:02:10;10.10;99.90
14236;DHT22;7202;50.718;7.072;2023-11-21T16:04:39;10.00;99.90
14236;DHT22;7202;50.718;7.072;2023-11-21T16:07:09;10.00;99.90
14236;DHT22;7202;50.718;7.072;2023-11-21T16:09:40;10.00;99.90
14236;DHT22;7202;50.718;7.072;2023-11-21T16:12:10;10.00;99.90
14236;DHT22;7202;50.718;7.072;2023-11-21T16:14:39;10.00;99.90
14236;DHT22;7202;50.718;7.072;2023-11-21T16:17:11;10.00;99.90